createdAt,value
2018-06-17T00:00:42.284Z,20.96
2018-06-17T00:02:35.071Z,20.88
2018-06-17T00:03:34.998Z,20.97
2018-06-17T00:05:27.787Z,20.81
2018-06-17T00:06:27.708Z,20.83
2018-06-17T00:08:20.527Z,20.83
2018-06-17T00:09:20.439Z,20.90
2018-06-17T00:11:13.235Z,20.82
2018-06-17T00:12:13.175Z,20.85
2018-06-17T00:14:06.056Z,20.85
2018-06-17T00:15:05.980Z,20.83
2018-06-17T00:16:58.779Z,20.87
2018-06-17T00:17:58.719Z,20.90
2018-06-17T00:19:51.555Z,20.91
2018-06-17T00:20:51.474Z,20.96
2018-06-17T00:22:44.238Z,20.87
2018-06-17T00:23:44.180Z,20.85
2018-06-17T00:25:36.963Z,20.82
2018-06-17T00:26:36.901Z,20.88
2018-06-17T00:28:29.684Z,20.88
2018-06-17T00:29:29.620Z,20.79
2018-06-17T00:31:22.399Z,20.73
2018-06-17T00:32:22.350Z,20.79
2018-06-17T00:34:15.137Z,20.75
2018-06-17T00:35:15.066Z,20.72
2018-06-17T00:37:07.837Z,20.91
2018-06-17T00:38:07.799Z,20.88
2018-06-17T00:40:00.597Z,21.03
2018-06-17T00:41:00.507Z,21.15
2018-06-17T00:42:53.274Z,21.22
2018-06-17T00:43:53.214Z,21.27
2018-06-17T00:45:46.059Z,21.27
2018-06-17T00:46:45.991Z,21.28
2018-06-17T00:48:38.753Z,21.22
2018-06-17T00:49:38.697Z,21.11
2018-06-17T00:51:31.501Z,21.01
2018-06-17T00:52:31.434Z,20.98
2018-06-17T00:54:24.237Z,20.94
2018-06-17T00:55:24.145Z,20.94
2018-06-17T00:57:16.921Z,20.91
2018-06-17T00:58:16.867Z,20.93
2018-06-17T01:00:09.689Z,20.93
2018-06-17T01:01:09.586Z,20.88
2018-06-17T01:03:02.405Z,20.93
2018-06-17T01:04:02.293Z,20.96
2018-06-17T01:05:55.120Z,20.78
2018-06-17T01:06:55.042Z,20.79
2018-06-17T01:08:47.824Z,20.98
2018-06-17T01:09:47.766Z,21.09
2018-06-17T01:11:40.556Z,21.03
2018-06-17T01:12:40.483Z,20.97
2018-06-17T01:14:33.269Z,20.91
2018-06-17T01:15:33.196Z,20.82
2018-06-17T01:17:25.992Z,20.72
2018-06-17T01:18:25.914Z,20.81
2018-06-17T01:20:18.732Z,20.69
2018-06-17T01:21:18.644Z,20.56
2018-06-17T01:23:11.431Z,20.56
2018-06-17T01:24:11.371Z,20.50
2018-06-17T01:26:04.172Z,20.34
2018-06-17T01:27:04.092Z,20.35
2018-06-17T01:28:56.886Z,20.26
2018-06-17T01:29:56.829Z,20.19
2018-06-17T01:31:49.637Z,20.19
2018-06-17T01:32:49.553Z,20.15
2018-06-17T01:34:42.351Z,20.10
2018-06-17T01:35:42.304Z,20.05
2018-06-17T01:37:35.095Z,20.04
2018-06-17T01:38:35.014Z,20.04
2018-06-17T01:40:27.855Z,20.05
2018-06-17T01:41:27.824Z,20.00
2018-06-17T01:43:20.538Z,20.04
2018-06-17T01:44:20.478Z,20.07
2018-06-17T01:46:13.768Z,20.07
2018-06-17T01:47:13.682Z,20.08
2018-06-17T01:49:06.474Z,19.95
2018-06-17T01:50:06.414Z,19.97
2018-06-17T01:51:59.227Z,19.94
2018-06-17T01:52:59.148Z,19.83
2018-06-17T01:54:51.942Z,19.83
2018-06-17T01:55:51.871Z,19.89
2018-06-17T01:57:44.685Z,19.90
2018-06-17T01:58:44.601Z,19.87
2018-06-17T02:00:37.433Z,19.89
2018-06-17T02:01:37.406Z,19.72
2018-06-17T02:03:30.145Z,19.70
2018-06-17T02:04:30.075Z,19.71
2018-06-17T02:06:23.237Z,19.76
2018-06-17T02:07:23.164Z,19.78
2018-06-17T02:09:15.992Z,19.76
2018-06-17T02:10:15.889Z,19.70
2018-06-17T02:12:08.675Z,19.68
2018-06-17T02:13:08.607Z,19.71
2018-06-17T02:15:01.418Z,19.70
2018-06-17T02:16:01.354Z,19.61
2018-06-17T02:17:54.144Z,19.46
2018-06-17T02:18:54.078Z,19.53
2018-06-17T02:20:46.892Z,19.39
2018-06-17T02:21:46.806Z,19.43
2018-06-17T02:23:39.611Z,19.47
2018-06-17T02:24:39.534Z,19.42
2018-06-17T02:26:32.332Z,19.32
2018-06-17T02:27:32.276Z,19.24
2018-06-17T02:29:25.050Z,19.21
2018-06-17T02:30:24.982Z,19.23
2018-06-17T02:32:17.773Z,19.05
2018-06-17T02:33:17.704Z,19.06
2018-06-17T02:35:10.470Z,19.05
2018-06-17T02:36:10.417Z,19.05
2018-06-17T02:38:03.199Z,18.96
2018-06-17T02:39:03.121Z,18.90
2018-06-17T02:40:55.909Z,18.93
2018-06-17T02:41:55.837Z,18.87
2018-06-17T02:43:48.631Z,18.89
2018-06-17T02:44:48.552Z,18.79
2018-06-17T02:46:41.327Z,18.69
2018-06-17T02:47:41.267Z,18.79
2018-06-17T02:49:34.048Z,18.75
2018-06-17T02:50:33.979Z,18.79
2018-06-17T02:52:26.767Z,18.71
2018-06-17T02:53:26.702Z,18.68
2018-06-17T02:55:19.500Z,18.74
2018-06-17T02:56:19.425Z,18.68
2018-06-17T02:58:12.218Z,18.76
2018-06-17T02:59:12.156Z,18.69
2018-06-17T03:01:04.956Z,18.79
2018-06-17T03:02:04.888Z,18.71
2018-06-17T03:03:57.768Z,18.79
2018-06-17T03:04:57.619Z,18.76
2018-06-17T03:06:50.397Z,18.76
2018-06-17T03:07:50.334Z,18.84
2018-06-17T03:09:43.116Z,18.84
2018-06-17T03:10:43.061Z,18.82
2018-06-17T03:12:35.819Z,18.89
2018-06-17T03:13:35.756Z,18.91
2018-06-17T03:15:28.543Z,18.94
2018-06-17T03:16:28.467Z,18.79
2018-06-17T03:18:21.263Z,18.79
2018-06-17T03:19:21.188Z,18.83
2018-06-17T03:21:13.964Z,18.83
2018-06-17T03:22:13.905Z,18.87
2018-06-17T03:24:06.694Z,18.78
2018-06-17T03:25:06.622Z,18.87
2018-06-17T03:26:59.389Z,18.90
2018-06-17T03:27:59.335Z,18.86
2018-06-17T03:29:52.125Z,18.93
2018-06-17T03:30:52.056Z,18.83
2018-06-17T03:32:44.829Z,18.75
2018-06-17T03:33:44.791Z,18.66
2018-06-17T03:35:37.550Z,18.89
2018-06-17T03:36:37.477Z,18.69
2018-06-17T03:38:30.275Z,18.79
2018-06-17T03:39:30.207Z,18.83
2018-06-17T03:41:22.987Z,18.87
2018-06-17T03:42:22.929Z,18.96
2018-06-17T03:44:15.719Z,18.93
2018-06-17T03:45:15.631Z,19.09
2018-06-17T03:47:08.404Z,19.16
2018-06-17T03:48:08.352Z,19.15
2018-06-17T03:50:01.131Z,19.17
2018-06-17T03:51:01.069Z,19.16
2018-06-17T03:52:53.838Z,19.32
2018-06-17T03:53:53.781Z,19.25
2018-06-17T03:55:46.567Z,19.30
2018-06-17T03:56:46.491Z,19.23
2018-06-17T03:58:39.289Z,19.31
2018-06-17T03:59:39.224Z,19.30
2018-06-17T04:01:32.037Z,19.39
2018-06-17T04:02:31.947Z,19.38
2018-06-17T04:04:24.746Z,19.39
2018-06-17T04:05:24.675Z,19.47
2018-06-17T04:07:17.559Z,19.52
2018-06-17T04:08:17.468Z,19.53
2018-06-17T04:10:10.325Z,19.60
2018-06-17T04:11:10.253Z,19.67
2018-06-17T04:13:03.040Z,19.71
2018-06-17T04:14:02.982Z,19.71
2018-06-17T04:15:55.806Z,19.79
2018-06-17T04:16:55.727Z,19.83
2018-06-17T04:18:48.531Z,19.98
2018-06-17T04:19:48.470Z,20.05
2018-06-17T04:21:41.310Z,20.23
2018-06-17T04:22:41.229Z,20.30
2018-06-17T04:24:34.022Z,20.50
2018-06-17T04:25:34.031Z,20.72
2018-06-17T04:27:26.745Z,20.91
2018-06-17T04:28:26.677Z,20.96
2018-06-17T04:30:19.522Z,21.13
2018-06-17T04:31:19.435Z,21.24
2018-06-17T04:33:12.216Z,21.40
2018-06-17T04:34:12.156Z,21.48
2018-06-17T04:36:04.987Z,21.67
2018-06-17T04:37:04.869Z,21.77
2018-06-17T04:38:57.666Z,21.99
2018-06-17T04:39:57.616Z,22.20
2018-06-17T04:41:50.403Z,22.46
2018-06-17T04:42:50.325Z,22.61
2018-06-17T04:44:43.104Z,22.99
2018-06-17T04:45:43.033Z,23.16
2018-06-17T04:47:35.851Z,23.84
2018-06-17T04:48:35.767Z,24.46
2018-06-17T04:50:28.566Z,25.71
2018-06-17T04:51:28.473Z,26.27
2018-06-17T04:53:21.278Z,27.08
2018-06-17T04:54:21.212Z,27.15
2018-06-17T04:56:14.066Z,27.84
2018-06-17T04:57:13.995Z,28.03
2018-06-17T04:59:06.834Z,28.17
2018-06-17T05:00:06.791Z,28.50
2018-06-17T05:01:59.589Z,28.70
2018-06-17T05:02:59.522Z,28.77
2018-06-17T05:04:52.309Z,28.94
2018-06-17T05:05:52.260Z,28.76
2018-06-17T05:07:45.090Z,29.20
2018-06-17T05:08:45.050Z,29.00
2018-06-17T05:10:37.808Z,29.00
2018-06-17T05:11:37.721Z,29.00
2018-06-17T05:13:30.515Z,29.12
2018-06-17T05:14:30.462Z,29.41
2018-06-17T05:16:23.270Z,29.79
2018-06-17T05:17:23.221Z,29.97
2018-06-17T05:19:16.013Z,29.78
2018-06-17T05:20:16.049Z,29.74
2018-06-17T05:22:08.774Z,29.42
2018-06-17T05:23:08.692Z,29.58
2018-06-17T05:25:01.554Z,29.03
2018-06-17T05:26:01.423Z,29.03
2018-06-17T05:27:54.255Z,28.76
2018-06-17T05:28:54.165Z,28.64
2018-06-17T05:30:46.967Z,29.23
2018-06-17T05:31:46.926Z,29.49
2018-06-17T05:33:39.809Z,29.94
2018-06-17T05:34:39.660Z,30.26
2018-06-17T05:36:32.465Z,30.67
2018-06-17T05:37:32.400Z,30.82
2018-06-17T05:39:25.214Z,31.18
2018-06-17T05:40:25.169Z,31.31
2018-06-17T05:42:18.176Z,30.94
2018-06-17T05:43:18.098Z,31.03
2018-06-17T05:45:10.941Z,31.18
2018-06-17T05:46:10.859Z,31.34
2018-06-17T05:48:03.655Z,31.67
2018-06-17T05:49:03.623Z,31.64
2018-06-17T05:50:56.407Z,32.09
2018-06-17T05:51:56.334Z,32.17
2018-06-17T05:53:49.124Z,31.34
2018-06-17T05:54:49.092Z,31.46
2018-06-17T05:56:41.887Z,31.90
2018-06-17T05:57:41.812Z,32.10
2018-06-17T05:59:34.617Z,32.13
2018-06-17T06:00:34.570Z,32.24
2018-06-17T06:02:27.360Z,32.47
2018-06-17T06:03:27.299Z,32.10
2018-06-17T06:05:20.097Z,32.28
2018-06-17T06:06:20.043Z,32.17
2018-06-17T06:08:12.892Z,32.43
2018-06-17T06:09:12.821Z,32.21
2018-06-17T06:11:05.683Z,32.21
2018-06-17T06:12:05.700Z,32.32
2018-06-17T06:13:58.386Z,32.44
2018-06-17T06:14:58.319Z,32.51
2018-06-17T06:16:51.186Z,32.65
2018-06-17T06:17:51.071Z,32.44
2018-06-17T06:19:43.859Z,32.47
2018-06-17T06:20:43.826Z,32.81
2018-06-17T06:22:36.632Z,32.62
2018-06-17T06:23:36.562Z,32.81
2018-06-17T06:25:29.371Z,32.50
2018-06-17T06:26:29.318Z,32.59
2018-06-17T06:28:22.142Z,32.39
2018-06-17T06:29:22.112Z,32.53
2018-06-17T06:31:14.908Z,32.62
2018-06-17T06:32:14.903Z,32.63
2018-06-17T06:34:07.698Z,32.78
2018-06-17T06:35:07.587Z,32.91
2018-06-17T06:37:00.383Z,33.33
2018-06-17T06:38:00.332Z,33.52
2018-06-17T06:39:53.156Z,33.41
2018-06-17T06:40:53.095Z,33.57
2018-06-17T06:42:45.942Z,33.40
2018-06-17T06:43:45.867Z,33.59
2018-06-17T06:45:38.744Z,33.60
2018-06-17T06:46:38.610Z,33.60
2018-06-17T06:48:31.489Z,33.84
2018-06-17T06:49:31.408Z,34.00
2018-06-17T06:51:24.815Z,34.11
2018-06-17T06:52:24.760Z,34.23
2018-06-17T06:54:18.210Z,33.75
2018-06-17T06:55:18.048Z,33.78
2018-06-17T06:57:10.892Z,33.77
2018-06-17T06:58:10.800Z,33.87
2018-06-17T07:00:05.131Z,33.81
2018-06-17T07:01:06.847Z,33.89
2018-06-17T07:02:58.037Z,33.99
2018-06-17T07:03:58.457Z,33.90
2018-06-17T07:05:50.698Z,33.63
2018-06-17T07:06:50.664Z,33.47
2018-06-17T07:08:43.502Z,33.57
2018-06-17T07:09:43.442Z,33.78
2018-06-17T07:11:36.261Z,33.34
2018-06-17T07:12:36.237Z,33.45
2018-06-17T07:14:29.025Z,33.62
2018-06-17T07:15:28.951Z,33.84
2018-06-17T07:17:21.777Z,33.79
2018-06-17T07:18:21.713Z,33.82
2018-06-17T07:20:14.530Z,34.00
2018-06-17T07:21:14.461Z,33.89
2018-06-17T07:23:07.258Z,33.77
2018-06-17T07:24:07.205Z,33.77
2018-06-17T07:26:00.031Z,33.45
2018-06-17T07:26:59.957Z,33.38
2018-06-17T07:28:52.774Z,33.20
2018-06-17T07:29:52.708Z,33.02
2018-06-17T07:31:45.510Z,33.03
2018-06-17T07:32:45.517Z,33.22
2018-06-17T07:34:38.263Z,33.38
2018-06-17T07:35:38.177Z,32.98
2018-06-17T07:37:30.980Z,32.87
2018-06-17T07:38:30.960Z,32.77
2018-06-17T07:40:23.806Z,32.49
2018-06-17T07:41:23.731Z,32.50
2018-06-17T07:43:16.528Z,32.90
2018-06-17T07:44:16.477Z,32.71
2018-06-17T07:46:09.293Z,31.99
2018-06-17T07:47:09.211Z,31.92
2018-06-17T07:49:02.004Z,31.76
2018-06-17T07:50:01.945Z,31.97
2018-06-17T07:51:54.796Z,32.21
2018-06-17T07:52:54.745Z,32.07
2018-06-17T07:54:47.524Z,32.21
2018-06-17T07:55:47.465Z,32.10
2018-06-17T07:57:40.282Z,31.71
2018-06-17T07:58:40.232Z,31.59
2018-06-17T08:00:33.020Z,31.88
2018-06-17T08:01:32.944Z,31.97
2018-06-17T08:03:25.789Z,32.41
2018-06-17T08:04:25.738Z,32.47
2018-06-17T08:06:18.547Z,32.61
2018-06-17T08:07:18.511Z,32.62
2018-06-17T08:09:11.276Z,32.63
2018-06-17T08:10:11.229Z,32.47
2018-06-17T08:12:04.055Z,31.91
2018-06-17T08:13:03.978Z,31.99
2018-06-17T08:14:56.804Z,32.02
2018-06-17T08:15:56.751Z,32.02
2018-06-17T08:17:49.568Z,31.98
2018-06-17T08:18:49.488Z,31.98
2018-06-17T08:20:42.287Z,31.71
2018-06-17T08:21:42.228Z,31.28
2018-06-17T08:23:35.060Z,31.18
2018-06-17T08:24:34.991Z,31.07
2018-06-17T08:26:27.844Z,31.35
2018-06-17T08:27:27.775Z,31.32
2018-06-17T08:29:20.582Z,31.37
2018-06-17T08:30:20.529Z,31.54
2018-06-17T08:32:13.372Z,31.46
2018-06-17T08:33:13.290Z,31.34
2018-06-17T08:35:06.088Z,30.49
2018-06-17T08:36:06.034Z,30.04
2018-06-17T08:37:58.871Z,30.07
2018-06-17T08:38:58.807Z,29.92
2018-06-17T08:40:51.689Z,30.22
2018-06-17T08:41:51.591Z,30.13
2018-06-17T08:43:44.392Z,31.04
2018-06-17T08:44:44.320Z,31.12
2018-06-17T08:46:37.128Z,30.85
2018-06-17T08:47:37.068Z,30.94
2018-06-17T08:49:29.956Z,30.96
2018-06-17T08:50:29.879Z,30.68
2018-06-17T08:52:22.737Z,30.68
2018-06-17T08:53:22.665Z,30.67
2018-06-17T08:55:15.474Z,30.86
2018-06-17T08:56:15.447Z,30.93
2018-06-17T08:58:08.237Z,30.85
2018-06-17T08:59:08.152Z,30.40
2018-06-17T09:01:00.952Z,29.81
2018-06-17T09:02:00.936Z,29.62
2018-06-17T09:03:53.767Z,30.28
2018-06-17T09:04:53.626Z,30.61
2018-06-17T09:06:46.489Z,31.03
2018-06-17T09:07:46.440Z,31.23
2018-06-17T09:09:39.306Z,31.53
2018-06-17T09:10:39.249Z,31.67
2018-06-17T09:12:32.021Z,31.57
2018-06-17T09:13:31.953Z,31.64
2018-06-17T09:15:24.830Z,31.59
2018-06-17T09:16:24.833Z,31.32
2018-06-17T09:18:17.583Z,31.59
2018-06-17T09:19:17.550Z,31.67
2018-06-17T09:21:10.313Z,31.82
2018-06-17T09:22:10.244Z,32.02
2018-06-17T09:24:03.059Z,31.99
2018-06-17T09:25:02.999Z,32.12
2018-06-17T09:26:55.787Z,32.22
2018-06-17T09:27:55.734Z,32.28
2018-06-17T09:29:48.554Z,32.29
2018-06-17T09:30:48.487Z,32.14
2018-06-17T09:32:41.282Z,32.02
2018-06-17T09:33:41.224Z,31.92
2018-06-17T09:35:34.028Z,31.88
2018-06-17T09:36:33.954Z,31.57
2018-06-17T09:38:26.766Z,31.59
2018-06-17T09:39:26.701Z,31.60
2018-06-17T09:41:19.520Z,31.50
2018-06-17T09:42:19.461Z,31.60
2018-06-17T09:44:12.336Z,31.59
2018-06-17T09:45:12.301Z,31.34
2018-06-17T09:47:05.044Z,31.20
2018-06-17T09:48:05.032Z,31.12
2018-06-17T09:49:57.797Z,31.19
2018-06-17T09:50:57.724Z,31.34
2018-06-17T09:52:51.503Z,31.18
2018-06-17T09:53:51.458Z,31.09
2018-06-17T09:55:44.281Z,31.37
2018-06-17T09:56:44.246Z,31.68
2018-06-17T09:58:37.088Z,32.03
2018-06-17T09:59:37.029Z,32.07
2018-06-17T10:01:31.896Z,32.28
2018-06-17T10:02:31.754Z,32.25
2018-06-17T10:04:24.666Z,32.21
2018-06-17T10:05:24.557Z,32.06
2018-06-17T10:07:17.450Z,31.64
2018-06-17T10:08:17.375Z,31.52
2018-06-17T10:10:10.187Z,31.54
2018-06-17T10:11:10.127Z,31.37
2018-06-17T10:13:03.458Z,31.20
2018-06-17T10:14:03.381Z,31.20
2018-06-17T10:15:56.235Z,31.23
2018-06-17T10:16:56.158Z,31.01
2018-06-17T10:18:48.977Z,30.63
2018-06-17T10:19:48.904Z,30.44
2018-06-17T10:21:41.776Z,29.91
2018-06-17T10:22:41.761Z,29.76
2018-06-17T10:24:34.608Z,29.52
2018-06-17T10:25:34.526Z,29.58
2018-06-17T10:27:27.322Z,29.99
2018-06-17T10:28:27.256Z,30.29
2018-06-17T10:30:20.131Z,30.26
2018-06-17T10:31:20.061Z,30.46
2018-06-17T10:33:12.913Z,30.72
2018-06-17T10:34:12.830Z,30.68
2018-06-17T10:36:05.673Z,29.78
2018-06-17T10:37:05.581Z,29.44
2018-06-17T10:38:58.383Z,29.02
2018-06-17T10:39:58.314Z,29.08
2018-06-17T10:41:51.167Z,28.73
2018-06-17T10:42:51.073Z,28.67
2018-06-17T10:44:43.932Z,29.20
2018-06-17T10:45:43.853Z,29.48
2018-06-17T10:47:36.654Z,29.69
2018-06-17T10:48:36.573Z,29.66
2018-06-17T10:50:30.049Z,29.42
2018-06-17T10:51:29.879Z,29.60
2018-06-17T10:53:22.736Z,29.76
2018-06-17T10:54:22.799Z,30.00
2018-06-17T10:56:15.649Z,29.78
2018-06-17T10:57:15.439Z,29.74
2018-06-17T10:59:08.228Z,30.03
2018-06-17T11:00:08.155Z,30.07
2018-06-17T11:02:00.963Z,30.26
2018-06-17T11:03:00.893Z,30.13
2018-06-17T11:04:53.725Z,30.00
2018-06-17T11:05:53.654Z,30.00
2018-06-17T11:07:46.477Z,30.00
2018-06-17T11:08:46.426Z,30.01
2018-06-17T11:10:39.243Z,29.44
2018-06-17T11:11:39.180Z,29.45
2018-06-17T11:13:31.972Z,29.27
2018-06-17T11:14:31.932Z,29.26
2018-06-17T11:16:24.773Z,29.47
2018-06-17T11:17:24.649Z,29.78
2018-06-17T11:19:17.446Z,30.08
2018-06-17T11:20:17.393Z,30.19
2018-06-17T11:22:10.263Z,30.03
2018-06-17T11:23:10.157Z,29.86
2018-06-17T11:25:02.977Z,29.64
2018-06-17T11:26:02.912Z,29.54
2018-06-17T11:27:55.723Z,29.55
2018-06-17T11:28:55.659Z,29.33
2018-06-17T11:30:48.482Z,29.23
2018-06-17T11:31:48.412Z,29.05
2018-06-17T11:33:41.235Z,28.67
2018-06-17T11:34:41.179Z,28.58
2018-06-17T11:36:34.079Z,28.50
2018-06-17T11:37:34.010Z,28.43
2018-06-17T11:39:26.819Z,28.40
2018-06-17T11:40:26.744Z,28.15
2018-06-17T11:42:19.552Z,28.14
2018-06-17T11:43:19.492Z,28.18
2018-06-17T11:45:12.918Z,28.17
2018-06-17T11:46:12.859Z,28.01
2018-06-17T11:48:05.876Z,27.81
2018-06-17T11:49:05.628Z,27.71
2018-06-17T11:50:58.486Z,27.63
2018-06-17T11:51:58.352Z,27.52
2018-06-17T11:53:51.160Z,27.52
2018-06-17T11:54:51.097Z,27.52
2018-06-17T11:56:43.917Z,27.59
2018-06-17T11:57:43.842Z,27.65
2018-06-17T11:59:36.748Z,27.71
2018-06-17T12:00:36.624Z,27.66
2018-06-17T12:02:29.455Z,27.71
2018-06-17T12:03:29.383Z,27.80
2018-06-17T12:05:22.193Z,27.86
2018-06-17T12:06:22.133Z,27.88
2018-06-17T12:08:14.934Z,27.87
2018-06-17T12:09:14.940Z,27.76
2018-06-17T12:11:07.694Z,27.96
2018-06-17T12:12:07.619Z,27.84
2018-06-17T12:14:00.472Z,27.38
2018-06-17T12:15:00.392Z,27.27
2018-06-17T12:16:53.199Z,27.61
2018-06-17T12:17:53.113Z,27.77
2018-06-17T12:19:45.931Z,27.95
2018-06-17T12:20:45.869Z,27.87
2018-06-17T12:22:38.722Z,27.87
2018-06-17T12:23:38.647Z,27.91
2018-06-17T12:25:31.558Z,27.76
2018-06-17T12:26:31.440Z,27.66
2018-06-17T12:28:24.236Z,27.49
2018-06-17T12:29:24.167Z,27.42
2018-06-17T12:31:16.980Z,27.05
2018-06-17T12:32:16.923Z,27.08
2018-06-17T12:34:09.752Z,26.78
2018-06-17T12:35:09.675Z,26.93
2018-06-17T12:37:02.494Z,27.18
2018-06-17T12:38:02.424Z,27.31
2018-06-17T12:39:55.217Z,27.55
2018-06-17T12:40:55.143Z,27.63
2018-06-17T12:42:47.949Z,27.84
2018-06-17T12:43:47.880Z,27.96
2018-06-17T12:45:40.695Z,28.06
2018-06-17T12:46:40.624Z,27.98
2018-06-17T12:48:33.502Z,28.01
2018-06-17T12:49:33.403Z,27.98
2018-06-17T12:51:26.207Z,28.05
2018-06-17T12:52:26.201Z,27.95
2018-06-17T12:54:18.935Z,27.80
2018-06-17T12:55:18.872Z,27.65
2018-06-17T12:57:11.672Z,27.55
2018-06-17T12:58:11.620Z,27.52
2018-06-17T13:00:04.411Z,27.39
2018-06-17T13:01:04.354Z,27.33
2018-06-17T13:02:57.224Z,27.20
2018-06-17T13:03:57.127Z,27.11
2018-06-17T13:05:49.931Z,27.11
2018-06-17T13:06:49.868Z,26.90
2018-06-17T13:08:42.696Z,26.78
2018-06-17T13:09:42.617Z,26.71
2018-06-17T13:11:35.409Z,26.87
2018-06-17T13:12:35.363Z,26.84
2018-06-17T13:14:28.168Z,27.15
2018-06-17T13:15:28.099Z,27.39
2018-06-17T13:17:20.960Z,27.72
2018-06-17T13:18:20.841Z,27.71
2018-06-17T13:20:13.662Z,27.69
2018-06-17T13:21:13.629Z,27.74
2018-06-17T13:23:06.439Z,27.74
2018-06-17T13:24:06.419Z,27.53
2018-06-17T13:25:59.206Z,27.52
2018-06-17T13:26:59.125Z,27.53
2018-06-17T13:28:51.943Z,27.46
2018-06-17T13:29:51.874Z,27.40
2018-06-17T13:31:44.739Z,27.40
2018-06-17T13:32:44.672Z,27.38
2018-06-17T13:34:37.502Z,27.33
2018-06-17T13:35:37.429Z,27.33
2018-06-17T13:37:30.267Z,27.61
2018-06-17T13:38:30.210Z,27.63
2018-06-17T13:40:23.140Z,27.78
2018-06-17T13:41:23.061Z,27.71
2018-06-17T13:43:15.945Z,27.71
2018-06-17T13:44:15.883Z,27.74
2018-06-17T13:46:09.561Z,27.55
2018-06-17T13:47:09.509Z,27.46
2018-06-17T13:49:02.343Z,27.43
2018-06-17T13:50:02.258Z,27.39
2018-06-17T13:51:55.058Z,27.35
2018-06-17T13:52:54.991Z,27.34
2018-06-17T13:54:47.883Z,27.28
2018-06-17T13:55:47.771Z,27.35
2018-06-17T13:57:40.616Z,27.46
2018-06-17T13:58:40.548Z,27.43
2018-06-17T14:00:33.517Z,27.52
2018-06-17T14:01:33.543Z,27.50
2018-06-17T14:03:26.309Z,27.18
2018-06-17T14:04:26.189Z,27.03
2018-06-17T14:06:19.048Z,26.88
2018-06-17T14:07:19.055Z,27.15
2018-06-17T14:09:11.824Z,26.98
2018-06-17T14:10:11.752Z,26.97
2018-06-17T14:12:04.591Z,27.05
2018-06-17T14:13:04.501Z,27.13
2018-06-17T14:14:57.425Z,27.31
2018-06-17T14:15:57.310Z,27.50
2018-06-17T14:17:50.176Z,27.39
2018-06-17T14:18:50.168Z,27.23
2018-06-17T14:20:42.995Z,27.24
2018-06-17T14:21:42.907Z,27.27
2018-06-17T14:23:35.730Z,27.20
2018-06-17T14:24:35.692Z,27.24
2018-06-17T14:26:28.530Z,27.30
2018-06-17T14:27:28.459Z,27.16
2018-06-17T14:29:21.330Z,27.09
2018-06-17T14:30:21.255Z,27.09
2018-06-17T14:32:14.095Z,27.21
2018-06-17T14:33:14.031Z,27.24
2018-06-17T14:35:06.855Z,27.23
2018-06-17T14:36:06.798Z,27.28
2018-06-17T14:37:59.599Z,27.34
2018-06-17T14:38:59.537Z,27.38
2018-06-17T14:40:52.385Z,27.08
2018-06-17T14:41:52.321Z,27.09
2018-06-17T14:43:45.116Z,26.86
2018-06-17T14:44:45.042Z,26.79
2018-06-17T14:46:37.875Z,26.59
2018-06-17T14:47:37.833Z,26.47
2018-06-17T14:49:30.677Z,26.35
2018-06-17T14:50:30.597Z,26.27
2018-06-17T14:52:23.440Z,26.36
2018-06-17T14:53:23.405Z,26.44
2018-06-17T14:55:16.206Z,26.60
2018-06-17T14:56:16.139Z,26.51
2018-06-17T14:58:08.935Z,26.60
2018-06-17T14:59:08.861Z,26.61
2018-06-17T15:01:01.817Z,26.59
2018-06-17T15:02:01.691Z,26.64
2018-06-17T15:03:54.569Z,26.66
2018-06-17T15:04:54.413Z,26.49
2018-06-17T15:06:47.760Z,26.49
2018-06-17T15:07:47.708Z,26.38
2018-06-17T15:09:40.629Z,26.39
2018-06-17T15:10:40.518Z,26.46
2018-06-17T15:12:33.541Z,26.49
2018-06-17T15:13:33.442Z,26.54
2018-06-17T15:15:26.217Z,26.59
2018-06-17T15:16:26.159Z,26.65
2018-06-17T15:18:19.063Z,26.68
2018-06-17T15:19:18.949Z,26.64
2018-06-17T15:21:11.793Z,26.72
2018-06-17T15:22:11.718Z,26.73
2018-06-17T15:24:04.512Z,26.69
2018-06-17T15:25:04.449Z,26.61
2018-06-17T15:26:57.287Z,26.71
2018-06-17T15:27:57.205Z,26.72
2018-06-17T15:29:49.999Z,26.78
2018-06-17T15:30:49.971Z,26.75
2018-06-17T15:32:42.770Z,26.78
2018-06-17T15:33:42.687Z,26.78
2018-06-17T15:35:35.497Z,26.91
2018-06-17T15:36:35.454Z,26.98
2018-06-17T15:38:28.299Z,27.05
2018-06-17T15:39:28.232Z,27.09
2018-06-17T15:41:21.103Z,27.15
2018-06-17T15:42:20.993Z,27.16
2018-06-17T15:44:13.884Z,27.21
2018-06-17T15:45:13.712Z,27.16
2018-06-17T15:47:06.544Z,27.24
2018-06-17T15:48:06.525Z,27.33
2018-06-17T15:49:59.228Z,27.39
2018-06-17T15:50:59.195Z,27.18
2018-06-17T15:52:51.956Z,26.98
2018-06-17T15:53:51.908Z,26.81
2018-06-17T15:55:44.665Z,26.81
2018-06-17T15:56:44.608Z,26.59
2018-06-17T15:58:37.413Z,26.49
2018-06-17T15:59:37.336Z,26.46
2018-06-17T16:01:30.156Z,26.65
2018-06-17T16:02:30.100Z,26.71
2018-06-17T16:04:22.967Z,26.83
2018-06-17T16:05:22.882Z,26.76
2018-06-17T16:07:15.752Z,26.54
2018-06-17T16:08:15.687Z,26.42
2018-06-17T16:10:08.494Z,26.44
2018-06-17T16:11:08.432Z,26.41
2018-06-17T16:13:01.229Z,26.36
2018-06-17T16:14:01.145Z,26.34
2018-06-17T16:15:54.004Z,26.29
2018-06-17T16:16:53.944Z,26.13
2018-06-17T16:18:46.908Z,26.13
2018-06-17T16:19:46.713Z,26.12
2018-06-17T16:21:39.484Z,26.20
2018-06-17T16:22:39.476Z,26.19
2018-06-17T16:24:32.257Z,26.35
2018-06-17T16:25:32.179Z,26.27
2018-06-17T16:27:24.975Z,26.24
2018-06-17T16:28:24.928Z,26.34
2018-06-17T16:30:17.715Z,26.17
2018-06-17T16:31:17.656Z,26.17
2018-06-17T16:33:10.476Z,25.97
2018-06-17T16:34:10.395Z,25.98
2018-06-17T16:36:03.214Z,25.93
2018-06-17T16:37:03.107Z,25.86
2018-06-17T16:38:55.921Z,25.71
2018-06-17T16:39:55.848Z,25.59
2018-06-17T16:41:48.640Z,25.44
2018-06-17T16:42:48.586Z,25.51
2018-06-17T16:44:41.397Z,25.49
2018-06-17T16:45:41.315Z,25.63
2018-06-17T16:47:34.143Z,25.67
2018-06-17T16:48:34.098Z,25.63
2018-06-17T16:50:26.875Z,25.67
2018-06-17T16:51:26.779Z,25.56
2018-06-17T16:53:19.632Z,25.57
2018-06-17T16:54:19.547Z,25.63
2018-06-17T16:56:12.361Z,25.59
2018-06-17T16:57:12.295Z,25.48
2018-06-17T16:59:05.077Z,25.38
2018-06-17T17:00:05.011Z,25.39
2018-06-17T17:01:57.790Z,25.29
2018-06-17T17:02:57.729Z,25.26
2018-06-17T17:04:50.523Z,25.23
2018-06-17T17:05:50.458Z,25.27
2018-06-17T17:07:43.221Z,25.14
2018-06-17T17:08:43.171Z,25.09
2018-06-17T17:10:35.962Z,25.07
2018-06-17T17:11:35.895Z,25.01
2018-06-17T17:13:28.726Z,25.05
2018-06-17T17:14:28.674Z,25.09
2018-06-17T17:16:21.474Z,25.12
2018-06-17T17:17:21.402Z,25.09
2018-06-17T17:19:14.179Z,25.19
2018-06-17T17:20:14.115Z,25.12
2018-06-17T17:22:06.946Z,25.12
2018-06-17T17:23:06.844Z,25.16
2018-06-17T17:24:59.633Z,25.09
2018-06-17T17:25:59.563Z,25.01
2018-06-17T17:27:52.354Z,24.94
2018-06-17T17:28:52.298Z,24.93
2018-06-17T17:30:45.078Z,24.97
2018-06-17T17:31:45.008Z,24.97
2018-06-17T17:33:37.788Z,24.94
2018-06-17T17:34:37.731Z,24.80
2018-06-17T17:36:30.532Z,24.75
2018-06-17T17:37:30.459Z,24.67
2018-06-17T17:39:23.260Z,24.67
2018-06-17T17:40:23.197Z,24.66
2018-06-17T17:42:16.029Z,24.68
2018-06-17T17:43:15.923Z,24.63
2018-06-17T17:45:08.693Z,24.51
2018-06-17T17:46:08.638Z,24.51
2018-06-17T17:48:01.424Z,24.39
2018-06-17T17:49:01.370Z,24.36
2018-06-17T17:50:54.152Z,24.30
2018-06-17T17:51:54.089Z,24.29
2018-06-17T17:53:46.859Z,24.29
2018-06-17T17:54:46.805Z,24.36
2018-06-17T17:56:39.607Z,24.31
2018-06-17T17:57:39.524Z,24.34
2018-06-17T17:59:32.308Z,24.41
2018-06-17T18:00:32.248Z,24.39
2018-06-17T18:02:25.067Z,24.33
2018-06-17T18:03:24.991Z,24.49
2018-06-17T18:05:17.766Z,24.51
2018-06-17T18:06:17.808Z,24.48
2018-06-17T18:08:10.528Z,24.48
2018-06-17T18:09:10.488Z,24.48
2018-06-17T18:11:03.229Z,24.46
2018-06-17T18:12:03.226Z,24.48
2018-06-17T18:13:56.003Z,24.34
2018-06-17T18:14:55.925Z,24.37
2018-06-17T18:16:48.740Z,24.39
2018-06-17T18:17:48.612Z,24.34
2018-06-17T18:19:41.430Z,24.37
2018-06-17T18:20:41.415Z,24.36
2018-06-17T18:22:34.181Z,24.34
2018-06-17T18:23:34.134Z,24.49
2018-06-17T18:25:26.879Z,24.77
2018-06-17T18:26:26.820Z,24.74
2018-06-17T18:28:19.644Z,24.45
2018-06-17T18:29:19.562Z,24.37
2018-06-17T18:31:12.353Z,24.23
2018-06-17T18:32:12.285Z,24.16